createdAt,value
2018-12-11T00:01:39.732Z,100685.58
2018-12-11T00:05:48.695Z,100696.20
2018-12-11T00:09:54.517Z,100702.47
2018-12-11T00:14:00.241Z,100693.84
2018-12-11T00:18:06.214Z,100703.52
2018-12-11T00:22:12.188Z,100693.84
2018-12-11T00:26:19.076Z,100681.97
2018-12-11T00:30:24.905Z,100687.85
2018-12-11T00:34:31.123Z,100690.84
2018-12-11T00:38:37.113Z,100689.92
2018-12-11T00:42:43.449Z,100683.77
2018-12-11T00:46:49.480Z,100686.55
2018-12-11T00:50:55.388Z,100684.84
2018-12-11T00:55:01.389Z,100690.75
2018-12-11T00:59:07.273Z,100680.84
2018-12-11T01:03:13.031Z,100685.39
2018-12-11T01:07:19.038Z,100689.08
2018-12-11T01:11:25.011Z,100690.16
2018-12-11T01:15:30.926Z,100694.65
2018-12-11T01:19:36.898Z,100687.63
2018-12-11T01:23:43.086Z,100704.19
2018-12-11T01:27:48.973Z,100702.41
2018-12-11T01:31:54.790Z,100702.03
2018-12-11T01:36:01.726Z,100704.78
2018-12-11T01:40:08.420Z,100708.70
2018-12-11T01:44:14.045Z,100712.92
2018-12-11T01:48:19.897Z,100717.17
2018-12-11T01:52:25.683Z,100727.15
2018-12-11T01:56:31.550Z,100720.08
2018-12-11T02:00:37.553Z,100722.48
2018-12-11T02:04:43.837Z,100712.84
2018-12-11T02:08:49.690Z,100721.95
2018-12-11T02:12:55.656Z,100714.64
2018-12-11T02:17:01.462Z,100716.64
2018-12-11T02:21:07.329Z,100718.56
2018-12-11T02:25:13.263Z,100715.57
2018-12-11T02:29:19.249Z,100714.34
2018-12-11T02:33:25.101Z,100704.25
2018-12-11T02:37:31.027Z,100702.33
2018-12-11T02:41:36.917Z,100712.27
2018-12-11T02:45:43.073Z,100714.10
2018-12-11T02:49:50.228Z,100721.95
2018-12-11T02:53:55.987Z,100733.78
2018-12-11T02:58:01.792Z,100726.78
2018-12-11T03:02:07.778Z,100725.88
2018-12-11T03:06:15.079Z,100728.70
2018-12-11T03:10:20.911Z,100730.79
2018-12-11T03:14:26.827Z,100724.49
2018-12-11T03:18:33.029Z,100721.05
2018-12-11T03:22:39.084Z,100725.66
2018-12-11T03:26:45.062Z,100720.72
2018-12-11T03:30:51.126Z,100724.44
2018-12-11T03:34:57.898Z,100729.05
2018-12-11T03:39:05.109Z,100724.73
2018-12-11T03:43:12.133Z,100717.41
2018-12-11T03:47:19.133Z,100726.57
2018-12-11T03:51:25.958Z,100728.33
2018-12-11T03:55:31.685Z,100727.83
2018-12-11T03:59:37.755Z,100733.84
2018-12-11T04:03:43.761Z,100732.53
2018-12-11T04:07:50.487Z,100720.89
2018-12-11T04:11:57.529Z,100712.09
2018-12-11T04:16:03.964Z,100716.72
2018-12-11T04:20:10.082Z,100728.47
2018-12-11T04:24:15.915Z,100713.80
2018-12-11T04:28:23.817Z,100712.16
2018-12-11T04:32:29.780Z,100717.81
2018-12-11T04:36:35.524Z,100716.80
2018-12-11T04:40:41.384Z,100711.19
2018-12-11T04:44:47.535Z,100715.20
2018-12-11T04:48:53.494Z,100720.64
2018-12-11T04:53:00.321Z,100717.90
2018-12-11T04:57:06.315Z,100721.50
2018-12-11T05:01:14.249Z,100713.83
2018-12-11T05:05:20.377Z,100710.14
2018-12-11T05:09:26.088Z,100710.14
2018-12-11T05:13:32.969Z,100717.61
2018-12-11T05:17:38.881Z,100715.37
2018-12-11T05:21:44.627Z,100715.74
2018-12-11T05:25:50.521Z,100717.09
2018-12-11T05:29:56.578Z,100713.86
2018-12-11T05:34:03.592Z,100720.45
2018-12-11T05:38:10.230Z,100724.69
2018-12-11T05:42:16.273Z,100730.97
2018-12-11T05:46:22.156Z,100732.41
2018-12-11T05:50:28.203Z,100723.66
2018-12-11T05:54:34.317Z,100731.22
2018-12-11T05:58:40.178Z,100727.13
2018-12-11T06:02:46.062Z,100730.73
2018-12-11T06:06:52.237Z,100726.88
2018-12-11T06:10:58.300Z,100728.36
2018-12-11T06:15:04.459Z,100727.39
2018-12-11T06:19:10.264Z,100719.83
2018-12-11T06:23:16.133Z,100711.56
2018-12-11T06:27:22.062Z,100719.05
2018-12-11T06:31:29.559Z,100726.08
2018-12-11T06:35:35.402Z,100723.02
2018-12-11T06:39:41.368Z,100722.33
2018-12-11T06:43:47.113Z,100725.64
2018-12-11T06:47:53.142Z,100735.94
2018-12-11T06:51:59.169Z,100720.33
2018-12-11T06:56:05.519Z,100727.27
2018-12-11T07:00:11.659Z,100728.13
2018-12-11T07:04:17.661Z,100727.35
2018-12-11T07:08:24.379Z,100729.52
2018-12-11T07:12:30.412Z,100730.06
2018-12-11T07:16:36.838Z,100738.20
2018-12-11T07:20:42.826Z,100735.97
2018-12-11T07:24:48.784Z,100740.30
2018-12-11T07:28:54.306Z,100743.45
2018-12-11T07:32:59.913Z,100744.23
2018-12-11T07:37:05.550Z,100755.93
2018-12-11T07:41:11.088Z,100743.92
2018-12-11T07:45:17.022Z,100752.98
2018-12-11T07:49:26.854Z,100760.92
2018-12-11T07:53:38.034Z,100748.20
2018-12-11T07:57:44.589Z,100746.52
2018-12-11T08:01:54.361Z,100752.50
2018-12-11T08:06:06.176Z,100757.81
2018-12-11T08:10:12.630Z,100757.73
2018-12-11T08:14:18.418Z,100770.28
2018-12-11T08:18:24.016Z,100768.98
2018-12-11T08:22:29.678Z,100762.68
2018-12-11T08:26:35.467Z,100766.93
2018-12-11T08:30:41.164Z,100771.15
2018-12-11T08:34:46.990Z,100773.34
2018-12-11T08:38:52.894Z,100774.57
2018-12-11T08:42:58.865Z,100774.56
2018-12-11T08:47:05.115Z,100774.88
2018-12-11T08:51:11.068Z,100777.33
2018-12-11T08:55:16.817Z,100773.72
2018-12-11T08:59:22.969Z,100770.88
2018-12-11T09:03:34.736Z,100769.50
2018-12-11T09:07:41.735Z,100774.94
2018-12-11T09:11:48.173Z,100765.53
2018-12-11T09:15:55.654Z,100772.20
2018-12-11T09:20:01.791Z,100775.26
2018-12-11T09:24:07.756Z,100777.66
2018-12-11T09:28:14.393Z,100770.50
2018-12-11T09:32:20.509Z,100781.09
2018-12-11T09:36:26.899Z,100779.50
2018-12-11T09:40:33.096Z,100777.34
2018-12-11T09:44:38.847Z,100781.14
2018-12-11T09:48:44.555Z,100778.78
2018-12-11T09:52:50.542Z,100781.27
2018-12-11T09:56:56.471Z,100772.00
2018-12-11T10:01:03.498Z,100776.70
2018-12-11T10:05:09.355Z,100768.38
2018-12-11T10:09:15.260Z,100768.83
2018-12-11T10:13:22.209Z,100773.02
2018-12-11T10:17:29.645Z,100774.05
2018-12-11T10:21:36.151Z,100779.67
2018-12-11T10:25:42.267Z,100782.30
2018-12-11T10:29:48.327Z,100774.25
2018-12-11T10:33:55.881Z,100775.66
2018-12-11T10:38:02.344Z,100779.47
2018-12-11T10:42:08.790Z,100773.00
2018-12-11T10:46:15.440Z,100772.42
2018-12-11T10:50:21.486Z,100771.55
2018-12-11T10:54:28.249Z,100770.95
2018-12-11T10:58:35.842Z,100761.52
2018-12-11T11:02:48.478Z,100761.44
2018-12-11T11:06:56.738Z,100749.91
2018-12-11T11:11:03.205Z,100745.54
2018-12-11T11:15:09.826Z,100742.20
2018-12-11T11:19:16.752Z,100738.15
2018-12-11T11:23:23.602Z,100740.38
2018-12-11T11:27:31.085Z,100733.40
2018-12-11T11:31:37.812Z,100736.41
2018-12-11T11:35:43.566Z,100732.46
2018-12-11T11:39:49.802Z,100728.08
2018-12-11T11:43:55.812Z,100730.39
2018-12-11T11:48:01.818Z,100720.77
2018-12-11T11:52:07.568Z,100716.60
2018-12-11T11:56:13.808Z,100714.55
2018-12-11T12:00:19.696Z,100714.20
2018-12-11T12:04:26.355Z,100706.91
2018-12-11T12:08:32.503Z,100710.20
2018-12-11T12:12:40.526Z,100702.27
2018-12-11T12:16:46.772Z,100706.33
2018-12-11T12:20:53.843Z,100717.25
2018-12-11T12:25:01.378Z,100717.47
2018-12-11T12:33:28.022Z,100723.27
2018-12-11T12:37:35.800Z,100725.72
2018-12-11T12:41:41.723Z,100723.87
2018-12-11T12:45:47.628Z,100718.30
2018-12-11T12:49:54.060Z,100723.86
2018-12-11T12:54:00.232Z,100722.53
2018-12-11T12:58:06.233Z,100728.08
2018-12-11T13:02:12.736Z,100735.25
2018-12-11T13:06:19.662Z,100740.43
2018-12-11T13:10:26.520Z,100726.59
2018-12-11T13:14:32.464Z,100730.44
2018-12-11T13:18:42.825Z,100728.14
2018-12-11T13:22:48.870Z,100732.27
2018-12-11T13:26:55.438Z,100732.52
2018-12-11T13:31:01.051Z,100728.36
2018-12-11T13:35:07.047Z,100725.13
2018-12-11T13:39:12.719Z,100725.50
2018-12-11T13:43:18.317Z,100722.30
2018-12-11T13:47:24.109Z,100728.56
2018-12-11T13:51:30.024Z,100727.44
2018-12-11T13:55:35.566Z,100733.52
2018-12-11T13:59:42.414Z,100738.45
2018-12-11T14:03:48.326Z,100730.82
2018-12-11T14:07:54.058Z,100722.76
2018-12-11T14:12:00.023Z,100731.95
2018-12-11T14:16:05.798Z,100731.01
2018-12-11T14:20:11.546Z,100725.27
2018-12-11T14:24:17.589Z,100733.66
2018-12-11T14:28:23.774Z,100735.07
2018-12-11T14:32:29.469Z,100730.19
2018-12-11T14:36:35.033Z,100736.74
2018-12-11T14:40:42.730Z,100724.99
2018-12-11T14:44:48.721Z,100731.97
2018-12-11T14:48:54.421Z,100733.83
2018-12-11T14:53:01.957Z,100733.02
2018-12-11T14:57:09.361Z,100728.55
2018-12-11T15:01:14.990Z,100733.03
2018-12-11T15:05:21.089Z,100730.59
2018-12-11T15:09:31.934Z,100732.91
2018-12-11T15:13:37.726Z,100726.76
2018-12-11T15:17:43.389Z,100729.23
2018-12-11T15:21:49.765Z,100734.29
2018-12-11T15:25:55.991Z,100737.05
2018-12-11T15:30:01.625Z,100738.39
2018-12-11T15:34:07.595Z,100737.77
2018-12-11T15:38:13.334Z,100737.11
2018-12-11T15:42:19.035Z,100737.64
2018-12-11T15:46:24.864Z,100745.73
2018-12-11T15:50:30.493Z,100752.28
2018-12-11T15:54:36.433Z,100751.14
2018-12-11T15:58:42.484Z,100755.91
2018-12-11T16:02:48.269Z,100755.86
2018-12-11T16:06:54.285Z,100751.93
2018-12-11T16:11:00.365Z,100750.82
2018-12-11T16:15:06.653Z,100752.78
2018-12-11T16:19:12.359Z,100756.23
2018-12-11T16:23:18.485Z,100763.38
2018-12-11T16:27:25.883Z,100758.22
2018-12-11T16:31:31.821Z,100762.54
2018-12-11T16:35:41.168Z,100754.60
2018-12-11T16:40:07.239Z,100757.38
2018-12-11T16:44:16.353Z,100752.92
2018-12-11T16:48:24.505Z,100753.63
2018-12-11T16:52:30.248Z,100754.23
2018-12-11T16:56:37.014Z,100764.80
2018-12-11T17:00:43.533Z,100756.93
2018-12-11T17:04:50.038Z,100760.54
2018-12-11T17:08:57.166Z,100763.53
2018-12-11T17:13:03.218Z,100766.72
2018-12-11T17:17:09.288Z,100764.31
2018-12-11T17:21:15.089Z,100768.16
2018-12-11T17:25:22.239Z,100773.07
2018-12-11T17:29:29.960Z,100790.41
2018-12-11T17:33:36.478Z,100790.49
2018-12-11T17:37:43.250Z,100796.95
2018-12-11T17:41:49.801Z,100798.55
2018-12-11T17:45:55.788Z,100803.70
2018-12-11T17:50:02.470Z,100806.33
2018-12-11T17:54:10.490Z,100808.33
2018-12-11T17:58:16.581Z,100816.27
2018-12-11T18:02:27.562Z,100806.20
2018-12-11T18:06:34.080Z,100805.59
2018-12-11T18:10:40.424Z,100801.29
2018-12-11T18:14:47.891Z,100801.73
2018-12-11T18:18:54.296Z,100796.98
2018-12-11T18:23:00.443Z,100803.53
2018-12-11T18:27:06.511Z,100802.38
2018-12-11T18:31:12.336Z,100798.13
2018-12-11T18:35:19.282Z,100803.61
2018-12-11T18:39:25.470Z,100804.55
2018-12-11T18:43:31.767Z,100806.95
2018-12-11T18:47:38.872Z,100815.72
2018-12-11T18:51:46.412Z,100823.11
2018-12-11T18:55:52.855Z,100811.56
2018-12-11T19:00:00.712Z,100817.33
2018-12-11T19:04:08.623Z,100823.11
2018-12-11T19:08:14.595Z,100823.34
2018-12-11T19:12:20.746Z,100821.80
2018-12-11T19:16:27.704Z,100823.42
2018-12-11T19:20:33.759Z,100827.19
2018-12-11T19:24:57.851Z,100827.73
2018-12-11T19:29:04.711Z,100829.73
2018-12-11T19:33:12.796Z,100816.69
2018-12-11T19:37:20.736Z,100821.27
2018-12-11T19:41:26.738Z,100815.09
2018-12-11T19:45:32.687Z,100805.32
2018-12-11T19:49:39.003Z,100788.27
2018-12-11T19:58:09.768Z,100795.06
2018-12-11T20:02:17.738Z,100792.82
2018-12-11T20:06:23.727Z,100793.05
2018-12-11T20:10:30.610Z,100787.82
2018-12-11T20:14:36.519Z,100792.05
2018-12-11T20:18:42.650Z,100792.42
2018-12-11T20:22:49.326Z,100784.88
2018-12-11T20:26:57.389Z,100783.27
2018-12-11T20:31:03.042Z,100784.64
2018-12-11T20:35:09.574Z,100783.94
2018-12-11T20:39:16.002Z,100783.55
2018-12-11T20:43:22.545Z,100779.37
2018-12-11T20:47:28.402Z,100784.23
2018-12-11T20:51:34.457Z,100790.72
2018-12-11T20:55:40.346Z,100795.05
2018-12-11T20:59:46.595Z,100800.81
2018-12-11T21:03:52.532Z,100797.27
2018-12-11T21:08:00.112Z,100793.72
2018-12-11T21:12:05.777Z,100801.80
2018-12-11T21:16:12.947Z,100803.76
2018-12-11T21:20:18.887Z,100798.19
2018-12-11T21:24:25.511Z,100798.94
2018-12-11T21:28:33.051Z,100800.42
2018-12-11T21:32:39.862Z,100803.05
2018-12-11T21:36:46.927Z,100806.05
2018-12-11T21:40:52.883Z,100807.62
2018-12-11T21:44:58.755Z,100809.45
2018-12-11T21:49:04.514Z,100813.77
2018-12-11T21:53:10.510Z,100813.25
2018-12-11T21:57:16.313Z,100812.03
2018-12-11T22:01:22.949Z,100808.61
2018-12-11T22:05:32.321Z,100813.36
2018-12-11T22:09:38.239Z,100810.77
2018-12-11T22:13:44.245Z,100816.84
2018-12-11T22:17:50.143Z,100817.98
2018-12-11T22:21:56.032Z,100815.77
2018-12-11T22:26:01.670Z,100819.73
2018-12-11T22:30:08.108Z,100819.08
2018-12-11T22:34:14.785Z,100824.81
2018-12-11T22:38:21.315Z,100821.30
2018-12-11T22:42:28.729Z,100821.05
2018-12-11T22:46:37.975Z,100820.39
2018-12-11T22:50:52.179Z,100821.38
2018-12-11T22:55:00.728Z,100823.50
2018-12-11T22:59:09.365Z,100815.07
2018-12-11T23:03:16.467Z,100821.83
2018-12-11T23:07:22.367Z,100824.28
2018-12-11T23:11:28.191Z,100829.06
2018-12-11T23:15:34.248Z,100840.34
2018-12-11T23:19:40.275Z,100837.45
2018-12-11T23:23:46.415Z,100835.19
2018-12-11T23:27:52.816Z,100829.33
2018-12-11T23:31:59.188Z,100833.00
2018-12-11T23:36:06.537Z,100832.41
2018-12-11T23:40:12.696Z,100823.55
2018-12-11T23:44:18.383Z,100822.81
2018-12-11T23:48:24.295Z,100826.17
2018-12-11T23:52:30.271Z,100834.74
2018-12-11T23:56:36.321Z,100827.05
